sensor_id;sensor_type;location;lat;lon;timestamp;P1;durP1;ratioP1;P2;durP2;ratioP2
13564;SDS011;6854;48.096;11.278;2022-10-23T09:07:11;6.27;;;3.37;;
13564;SDS011;6854;48.096;11.278;2022-10-23T09:09:47;4.73;;;3.03;;
13564;SDS011;6854;48.096;11.278;2022-10-23T09:12:23;3.90;;;3.43;;
13564;SDS011;6854;48.096;11.278;2022-10-23T09:17:58;1.80;;;1.70;;
13564;SDS011;6854;48.096;11.278;2022-10-23T09:21:29;3.33;;;1.50;;
13564;SDS011;6854;48.096;11.278;2022-10-23T09:30:23;3.07;;;0.90;;
13564;SDS011;6854;48.096;11.278;2022-10-23T09:33:22;1.53;;;0.83;;
13564;SDS011;6854;48.096;11.278;2022-10-23T09:36:05;1.83;;;1.03;;
13564;SDS011;6854;48.096;11.278;2022-10-23T09:41:34;2.13;;;0.97;;
13564;SDS011;6854;48.096;11.278;2022-10-23T09:46:37;1.67;;;0.70;;
13564;SDS011;6854;48.096;11.278;2022-10-23T09:49:03;1.17;;;0.60;;
13564;SDS011;6854;48.096;11.278;2022-10-23T09:51:32;1.20;;;0.70;;
13564;SDS011;6854;48.096;11.278;2022-10-23T09:54:01;1.00;;;0.60;;
13564;SDS011;6854;48.096;11.278;2022-10-23T09:56:31;4.70;;;0.70;;
13564;SDS011;6854;48.096;11.278;2022-10-23T09:58:59;1.03;;;0.60;;
13564;SDS011;6854;48.096;11.278;2022-10-23T10:01:27;1.30;;;0.60;;
13564;SDS011;6854;48.096;11.278;2022-10-23T10:03:53;0.90;;;0.60;;
13564;SDS011;6854;48.096;11.278;2022-10-23T10:06:24;1.17;;;0.63;;
13564;SDS011;6854;48.096;11.278;2022-10-23T10:08:51;1.37;;;0.80;;
13564;SDS011;6854;48.096;11.278;2022-10-23T10:19:18;2.57;;;0.90;;
13564;SDS011;6854;48.096;11.278;2022-10-23T10:24:20;3.17;;;0.70;;
13564;SDS011;6854;48.096;11.278;2022-10-23T10:27:01;1.30;;;0.60;;
13564;SDS011;6854;48.096;11.278;2022-10-23T10:29:42;1.30;;;0.83;;
13564;SDS011;6854;48.096;11.278;2022-10-23T10:34:57;0.90;;;0.60;;
13564;SDS011;6854;48.096;11.278;2022-10-23T10:37:33;0.90;;;0.70;;
13564;SDS011;6854;48.096;11.278;2022-10-23T10:40:14;1.10;;;0.67;;
13564;SDS011;6854;48.096;11.278;2022-10-23T10:47:57;1.20;;;0.60;;
13564;SDS011;6854;48.096;11.278;2022-10-23T10:50:28;1.30;;;0.90;;
13564;SDS011;6854;48.096;11.278;2022-10-23T10:53:04;2.47;;;0.90;;
13564;SDS011;6854;48.096;11.278;2022-10-23T10:58:16;1.40;;;0.70;;
13564;SDS011;6854;48.096;11.278;2022-10-23T11:00:43;2.40;;;0.60;;
13564;SDS011;6854;48.096;11.278;2022-10-23T11:05:45;1.50;;;0.70;;
13564;SDS011;6854;48.096;11.278;2022-10-23T11:10:45;5.23;;;0.90;;
13564;SDS011;6854;48.096;11.278;2022-10-23T11:13:46;1.27;;;0.60;;
13564;SDS011;6854;48.096;11.278;2022-10-23T11:18:40;3.03;;;0.80;;
13564;SDS011;6854;48.096;11.278;2022-10-23T11:26:21;3.07;;;0.70;;
13564;SDS011;6854;48.096;11.278;2022-10-23T11:36:54;4.90;;;0.90;;
13564;SDS011;6854;48.096;11.278;2022-10-23T11:39:27;2.90;;;0.83;;
13564;SDS011;6854;48.096;11.278;2022-10-23T11:44:27;2.92;;;0.90;;
13564;SDS011;6854;48.096;11.278;2022-10-23T11:47:06;1.85;;;0.70;;
13564;SDS011;6854;48.096;11.278;2022-10-23T11:49:49;4.23;;;1.03;;
13564;SDS011;6854;48.096;11.278;2022-10-23T11:52:19;2.97;;;0.90;;
13564;SDS011;6854;48.096;11.278;2022-10-23T11:54:46;1.40;;;0.80;;
13564;SDS011;6854;48.096;11.278;2022-10-23T11:57:13;6.28;;;1.00;;
13564;SDS011;6854;48.096;11.278;2022-10-23T12:02:20;1.38;;;0.80;;
13564;SDS011;6854;48.096;11.278;2022-10-23T12:04:48;4.88;;;0.80;;
13564;SDS011;6854;48.096;11.278;2022-10-23T12:07:19;3.83;;;0.80;;
13564;SDS011;6854;48.096;11.278;2022-10-23T12:10:06;2.72;;;0.70;;
13564;SDS011;6854;48.096;11.278;2022-10-23T12:12:33;3.83;;;0.88;;
13564;SDS011;6854;48.096;11.278;2022-10-23T12:17:40;2.05;;;0.80;;
13564;SDS011;6854;48.096;11.278;2022-10-23T12:25:05;2.10;;;0.90;;
13564;SDS011;6854;48.096;11.278;2022-10-23T12:35:14;1.20;;;0.70;;
13564;SDS011;6854;48.096;11.278;2022-10-23T12:37:49;1.20;;;0.70;;
13564;SDS011;6854;48.096;11.278;2022-10-23T12:40:19;1.23;;;0.73;;
13564;SDS011;6854;48.096;11.278;2022-10-23T12:42:50;1.42;;;0.90;;
13564;SDS011;6854;48.096;11.278;2022-10-23T12:45:23;1.55;;;0.70;;
13564;SDS011;6854;48.096;11.278;2022-10-23T12:47:51;4.30;;;1.00;;
13564;SDS011;6854;48.096;11.278;2022-10-23T12:50:22;1.90;;;0.90;;
13564;SDS011;6854;48.096;11.278;2022-10-23T13:07:36;2.05;;;0.80;;
13564;SDS011;6854;48.096;11.278;2022-10-23T13:10:04;2.75;;;0.93;;
13564;SDS011;6854;48.096;11.278;2022-10-23T13:12:31;3.55;;;0.90;;
13564;SDS011;6854;48.096;11.278;2022-10-23T13:20:22;1.13;;;0.80;;
13564;SDS011;6854;48.096;11.278;2022-10-23T13:22:55;2.83;;;0.70;;
13564;SDS011;6854;48.096;11.278;2022-10-23T13:25:22;1.40;;;1.00;;
13564;SDS011;6854;48.096;11.278;2022-10-23T13:30:35;1.20;;;0.70;;
13564;SDS011;6854;48.096;11.278;2022-10-23T13:35:56;2.35;;;0.90;;
13564;SDS011;6854;48.096;11.278;2022-10-23T13:38:29;1.48;;;0.85;;
13564;SDS011;6854;48.096;11.278;2022-10-23T13:40:56;6.80;;;1.00;;
13564;SDS011;6854;48.096;11.278;2022-10-23T13:43:23;1.45;;;0.90;;
13564;SDS011;6854;48.096;11.278;2022-10-23T13:45:50;2.45;;;0.85;;
13564;SDS011;6854;48.096;11.278;2022-10-23T13:48:16;5.30;;;2.08;;
13564;SDS011;6854;48.096;11.278;2022-10-23T13:50:43;2.10;;;1.10;;
13564;SDS011;6854;48.096;11.278;2022-10-23T13:53:10;2.00;;;1.02;;
13564;SDS011;6854;48.096;11.278;2022-10-23T13:55:43;3.00;;;1.10;;
13564;SDS011;6854;48.096;11.278;2022-10-23T13:58:28;3.15;;;1.10;;
13564;SDS011;6854;48.096;11.278;2022-10-23T14:00:55;1.95;;;1.10;;
13564;SDS011;6854;48.096;11.278;2022-10-23T14:03:21;3.33;;;1.42;;
13564;SDS011;6854;48.096;11.278;2022-10-23T14:05:48;1.75;;;1.13;;
13564;SDS011;6854;48.096;11.278;2022-10-23T14:08:15;2.88;;;1.50;;
13564;SDS011;6854;48.096;11.278;2022-10-23T14:10:41;1.63;;;1.00;;
13564;SDS011;6854;48.096;11.278;2022-10-23T14:13:07;3.03;;;1.02;;
13564;SDS011;6854;48.096;11.278;2022-10-23T14:15:33;2.10;;;1.13;;
13564;SDS011;6854;48.096;11.278;2022-10-23T14:18:04;1.50;;;0.93;;
13564;SDS011;6854;48.096;11.278;2022-10-23T14:20:31;2.75;;;0.90;;
13564;SDS011;6854;48.096;11.278;2022-10-23T14:22:57;3.78;;;0.95;;
13564;SDS011;6854;48.096;11.278;2022-10-23T14:25:23;2.78;;;1.00;;
13564;SDS011;6854;48.096;11.278;2022-10-23T14:27:52;1.40;;;0.93;;
13564;SDS011;6854;48.096;11.278;2022-10-23T14:30:19;1.75;;;1.15;;
13564;SDS011;6854;48.096;11.278;2022-10-23T14:32:47;1.70;;;1.10;;
13564;SDS011;6854;48.096;11.278;2022-10-23T14:35:14;4.25;;;1.42;;
13564;SDS011;6854;48.096;11.278;2022-10-23T14:37:41;2.93;;;1.20;;
13564;SDS011;6854;48.096;11.278;2022-10-23T14:40:07;1.73;;;1.23;;
13564;SDS011;6854;48.096;11.278;2022-10-23T14:42:33;2.22;;;1.92;;
13564;SDS011;6854;48.096;11.278;2022-10-23T14:45:03;2.80;;;1.67;;
13564;SDS011;6854;48.096;11.278;2022-10-23T14:47:32;2.60;;;1.40;;
13564;SDS011;6854;48.096;11.278;2022-10-23T14:49:58;10.03;;;1.60;;
13564;SDS011;6854;48.096;11.278;2022-10-23T14:52:24;1.70;;;1.27;;
13564;SDS011;6854;48.096;11.278;2022-10-23T14:54:51;3.73;;;1.40;;
13564;SDS011;6854;48.096;11.278;2022-10-23T15:00:58;2.47;;;1.50;;
13564;SDS011;6854;48.096;11.278;2022-10-23T15:03:25;4.80;;;1.43;;
13564;SDS011;6854;48.096;11.278;2022-10-23T15:05:52;4.93;;;1.43;;
13564;SDS011;6854;48.096;11.278;2022-10-23T15:08:20;2.50;;;1.40;;
13564;SDS011;6854;48.096;11.278;2022-10-23T15:10:47;2.60;;;1.43;;
13564;SDS011;6854;48.096;11.278;2022-10-23T15:13:22;5.30;;;3.20;;
13564;SDS011;6854;48.096;11.278;2022-10-23T15:16:27;5.10;;;1.80;;
13564;SDS011;6854;48.096;11.278;2022-10-23T15:22:12;2.90;;;1.70;;
13564;SDS011;6854;48.096;11.278;2022-10-23T15:59:01;4.00;;;2.13;;
13564;SDS011;6854;48.096;11.278;2022-10-23T16:05:25;5.60;;;2.50;;
13564;SDS011;6854;48.096;11.278;2022-10-23T16:08:47;12.43;;;2.67;;
13564;SDS011;6854;48.096;11.278;2022-10-23T16:12:06;5.53;;;2.40;;
13564;SDS011;6854;48.096;11.278;2022-10-23T16:15:33;5.60;;;2.43;;
13564;SDS011;6854;48.096;11.278;2022-10-23T16:18:40;6.57;;;3.13;;
13564;SDS011;6854;48.096;11.278;2022-10-23T16:24:48;10.40;;;3.20;;
13564;SDS011;6854;48.096;11.278;2022-10-23T16:30:49;3.60;;;2.40;;
13564;SDS011;6854;48.096;11.278;2022-10-23T16:57:40;7.77;;;2.10;;
13564;SDS011;6854;48.096;11.278;2022-10-23T17:04:25;5.67;;;3.03;;
13564;SDS011;6854;48.096;11.278;2022-10-23T18:09:32;5.00;;;2.60;;
13564;SDS011;6854;48.096;11.278;2022-10-23T18:12:42;13.53;;;5.10;;
13564;SDS011;6854;48.096;11.278;2022-10-23T18:15:39;18.30;;;7.50;;
13564;SDS011;6854;48.096;11.278;2022-10-23T18:18:06;15.43;;;6.50;;
13564;SDS011;6854;48.096;11.278;2022-10-23T18:20:37;11.80;;;4.57;;
13564;SDS011;6854;48.096;11.278;2022-10-23T18:23:04;9.67;;;3.73;;
13564;SDS011;6854;48.096;11.278;2022-10-23T18:25:30;6.50;;;4.00;;
13564;SDS011;6854;48.096;11.278;2022-10-23T18:27:56;29.90;;;9.00;;
13564;SDS011;6854;48.096;11.278;2022-10-23T18:30:25;33.20;;;10.67;;
13564;SDS011;6854;48.096;11.278;2022-10-23T18:32:52;12.57;;;5.97;;
13564;SDS011;6854;48.096;11.278;2022-10-23T18:35:25;14.03;;;4.20;;
13564;SDS011;6854;48.096;11.278;2022-10-23T18:38:00;5.37;;;3.63;;
13564;SDS011;6854;48.096;11.278;2022-10-23T18:40:31;4.20;;;2.83;;
13564;SDS011;6854;48.096;11.278;2022-10-23T18:43:03;6.10;;;3.07;;
13564;SDS011;6854;48.096;11.278;2022-10-23T18:45:40;7.53;;;3.33;;
13564;SDS011;6854;48.096;11.278;2022-10-23T18:48:15;7.90;;;3.87;;
13564;SDS011;6854;48.096;11.278;2022-10-23T18:50:41;10.07;;;3.90;;
13564;SDS011;6854;48.096;11.278;2022-10-23T18:53:07;13.73;;;3.00;;
13564;SDS011;6854;48.096;11.278;2022-10-23T18:58:59;6.20;;;3.57;;
13564;SDS011;6854;48.096;11.278;2022-10-23T19:01:39;8.33;;;4.00;;
13564;SDS011;6854;48.096;11.278;2022-10-23T19:04:23;7.13;;;3.83;;
13564;SDS011;6854;48.096;11.278;2022-10-23T19:06:52;11.63;;;3.80;;
13564;SDS011;6854;48.096;11.278;2022-10-23T19:09:36;11.50;;;4.00;;
13564;SDS011;6854;48.096;11.278;2022-10-23T19:39:49;6.40;;;3.60;;
13564;SDS011;6854;48.096;11.278;2022-10-23T20:08:17;6.63;;;2.50;;
13564;SDS011;6854;48.096;11.278;2022-10-23T20:10:48;8.37;;;3.00;;
13564;SDS011;6854;48.096;11.278;2022-10-23T20:13:23;10.50;;;4.33;;
13564;SDS011;6854;48.096;11.278;2022-10-23T20:15:54;7.43;;;3.17;;
13564;SDS011;6854;48.096;11.278;2022-10-23T20:18:41;5.70;;;2.40;;
